Flemington, Missouri
Current Conditions -  °F | °C
As of 2:55 AM on Saturday 25 Oct 2014 (Local Time) from KGLY Reporting Station
Haze Haze  
Wind Chill: 63°   Ceiling: Unl
Heat Index: 63°   Visibility: 6mi
Dew Point: 61°   Wind: 5mph
Humidity: 94%   Direction: 230°SW
Pressure: 30.02"   Gusts: NA
Location:  37.8°N, 93.5°W
Report Text: KGLY 250755Z AUTO 23004KT 6SM BR CLR 17/16 A3002 RMK AO2
Loading
Personal Weather Stations






























Interactive Weather Map
Tropical Storm Tracking
New forecast layout! Learn more

10-Day Weather Forecast

Advertisements
Track Severe Weather on mobile